sensor_id;sensor_type;location;lat;lon;timestamp;P1;durP1;ratioP1;P2;durP2;ratioP2
23714;SDS011;12036;50.858;4.472;2022-10-16T00:00:56;1.05;;;0.63;;
23714;SDS011;12036;50.858;4.472;2022-10-16T00:03:22;3.00;;;0.82;;
23714;SDS011;12036;50.858;4.472;2022-10-16T00:05:48;3.00;;;0.60;;
23714;SDS011;12036;50.858;4.472;2022-10-16T00:08:13;1.48;;;0.60;;
23714;SDS011;12036;50.858;4.472;2022-10-16T00:10:39;1.13;;;0.82;;
23714;SDS011;12036;50.858;4.472;2022-10-16T00:13:05;2.22;;;0.93;;
23714;SDS011;12036;50.858;4.472;2022-10-16T00:15:35;2.83;;;0.70;;
23714;SDS011;12036;50.858;4.472;2022-10-16T00:18:02;1.38;;;0.73;;
23714;SDS011;12036;50.858;4.472;2022-10-16T00:20:29;2.03;;;0.70;;
23714;SDS011;12036;50.858;4.472;2022-10-16T00:22:56;1.85;;;0.98;;
23714;SDS011;12036;50.858;4.472;2022-10-16T00:25:22;0.93;;;0.70;;
23714;SDS011;12036;50.858;4.472;2022-10-16T00:27:48;2.88;;;0.70;;
23714;SDS011;12036;50.858;4.472;2022-10-16T00:30:13;2.50;;;0.60;;
23714;SDS011;12036;50.858;4.472;2022-10-16T00:32:39;2.58;;;0.65;;
23714;SDS011;12036;50.858;4.472;2022-10-16T00:35:05;1.83;;;0.70;;
23714;SDS011;12036;50.858;4.472;2022-10-16T00:37:31;3.80;;;0.85;;
23714;SDS011;12036;50.858;4.472;2022-10-16T00:39:57;0.98;;;0.55;;
23714;SDS011;12036;50.858;4.472;2022-10-16T00:42:22;2.13;;;0.60;;
23714;SDS011;12036;50.858;4.472;2022-10-16T00:44:49;1.83;;;0.63;;
23714;SDS011;12036;50.858;4.472;2022-10-16T00:52:32;0.70;;;0.70;;
23714;SDS011;12036;50.858;4.472;2022-10-16T00:54:59;0.55;;;0.50;;
23714;SDS011;12036;50.858;4.472;2022-10-16T00:57:26;1.23;;;0.77;;
23714;SDS011;12036;50.858;4.472;2022-10-16T00:59:52;0.60;;;0.60;;
23714;SDS011;12036;50.858;4.472;2022-10-16T01:02:18;1.77;;;0.60;;
23714;SDS011;12036;50.858;4.472;2022-10-16T01:04:46;0.95;;;0.50;;
23714;SDS011;12036;50.858;4.472;2022-10-16T01:07:16;2.33;;;0.75;;
23714;SDS011;12036;50.858;4.472;2022-10-16T01:09:51;1.00;;;0.60;;
23714;SDS011;12036;50.858;4.472;2022-10-16T01:15:25;1.17;;;0.85;;
23714;SDS011;12036;50.858;4.472;2022-10-16T01:20:47;2.28;;;0.80;;
23714;SDS011;12036;50.858;4.472;2022-10-16T01:31:12;3.22;;;0.88;;
23714;SDS011;12036;50.858;4.472;2022-10-16T01:33:42;1.38;;;0.70;;
23714;SDS011;12036;50.858;4.472;2022-10-16T01:36:19;3.35;;;0.70;;
23714;SDS011;12036;50.858;4.472;2022-10-16T01:38:51;1.02;;;0.80;;
23714;SDS011;12036;50.858;4.472;2022-10-16T01:41:31;1.80;;;0.80;;
23714;SDS011;12036;50.858;4.472;2022-10-16T01:44:07;1.95;;;0.60;;
23714;SDS011;12036;50.858;4.472;2022-10-16T01:46:55;2.17;;;1.00;;
23714;SDS011;12036;50.858;4.472;2022-10-16T01:49:21;4.90;;;0.80;;
23714;SDS011;12036;50.858;4.472;2022-10-16T01:51:51;3.20;;;0.88;;
23714;SDS011;12036;50.858;4.472;2022-10-16T01:54:20;1.40;;;0.70;;
23714;SDS011;12036;50.858;4.472;2022-10-16T01:56:50;4.05;;;0.90;;
23714;SDS011;12036;50.858;4.472;2022-10-16T01:59:17;3.58;;;0.73;;
23714;SDS011;12036;50.858;4.472;2022-10-16T02:01:47;2.45;;;0.80;;
23714;SDS011;12036;50.858;4.472;2022-10-16T02:06:46;1.95;;;1.10;;
23714;SDS011;12036;50.858;4.472;2022-10-16T02:09:12;1.65;;;0.80;;
23714;SDS011;12036;50.858;4.472;2022-10-16T02:11:40;2.83;;;0.90;;
23714;SDS011;12036;50.858;4.472;2022-10-16T02:14:06;1.15;;;0.82;;
23714;SDS011;12036;50.858;4.472;2022-10-16T02:16:37;1.33;;;0.80;;
23714;SDS011;12036;50.858;4.472;2022-10-16T02:19:04;2.35;;;1.00;;
23714;SDS011;12036;50.858;4.472;2022-10-16T02:21:44;1.27;;;0.90;;
23714;SDS011;12036;50.858;4.472;2022-10-16T02:27:05;1.73;;;0.80;;
23714;SDS011;12036;50.858;4.472;2022-10-16T02:29:40;1.17;;;0.80;;
23714;SDS011;12036;50.858;4.472;2022-10-16T02:32:15;1.70;;;0.93;;
23714;SDS011;12036;50.858;4.472;2022-10-16T02:34:47;5.15;;;1.42;;
23714;SDS011;12036;50.858;4.472;2022-10-16T02:37:14;5.10;;;0.85;;
23714;SDS011;12036;50.858;4.472;2022-10-16T02:39:41;3.30;;;1.00;;
23714;SDS011;12036;50.858;4.472;2022-10-16T02:42:11;1.70;;;1.10;;
23714;SDS011;12036;50.858;4.472;2022-10-16T02:44:38;2.83;;;0.98;;
23714;SDS011;12036;50.858;4.472;2022-10-16T02:47:03;1.77;;;1.00;;
23714;SDS011;12036;50.858;4.472;2022-10-16T02:49:29;4.88;;;1.20;;
23714;SDS011;12036;50.858;4.472;2022-10-16T02:51:55;3.53;;;1.20;;
23714;SDS011;12036;50.858;4.472;2022-10-16T02:54:20;4.45;;;1.10;;
23714;SDS011;12036;50.858;4.472;2022-10-16T02:56:46;5.65;;;1.27;;
23714;SDS011;12036;50.858;4.472;2022-10-16T02:59:12;2.55;;;1.00;;
23714;SDS011;12036;50.858;4.472;2022-10-16T03:01:37;3.95;;;1.13;;
23714;SDS011;12036;50.858;4.472;2022-10-16T03:04:03;2.80;;;1.15;;
23714;SDS011;12036;50.858;4.472;2022-10-16T03:06:29;2.90;;;1.05;;
23714;SDS011;12036;50.858;4.472;2022-10-16T03:08:54;4.05;;;1.05;;
23714;SDS011;12036;50.858;4.472;2022-10-16T03:11:20;1.45;;;0.82;;
23714;SDS011;12036;50.858;4.472;2022-10-16T03:13:46;3.83;;;1.00;;
23714;SDS011;12036;50.858;4.472;2022-10-16T03:16:11;1.42;;;1.02;;
23714;SDS011;12036;50.858;4.472;2022-10-16T03:18:37;4.40;;;1.02;;
23714;SDS011;12036;50.858;4.472;2022-10-16T03:21:02;1.25;;;1.00;;
23714;SDS011;12036;50.858;4.472;2022-10-16T03:23:28;2.75;;;1.00;;
23714;SDS011;12036;50.858;4.472;2022-10-16T03:25:54;3.42;;;1.30;;
23714;SDS011;12036;50.858;4.472;2022-10-16T03:28:19;1.60;;;1.05;;
23714;SDS011;12036;50.858;4.472;2022-10-16T03:30:45;2.83;;;1.15;;
23714;SDS011;12036;50.858;4.472;2022-10-16T03:33:10;1.67;;;1.17;;
23714;SDS011;12036;50.858;4.472;2022-10-16T03:35:36;4.20;;;1.58;;
23714;SDS011;12036;50.858;4.472;2022-10-16T03:38:02;5.28;;;1.52;;
23714;SDS011;12036;50.858;4.472;2022-10-16T03:40:27;2.20;;;1.00;;
23714;SDS011;12036;50.858;4.472;2022-10-16T03:42:53;4.72;;;1.50;;
23714;SDS011;12036;50.858;4.472;2022-10-16T03:45:22;1.08;;;0.98;;
23714;SDS011;12036;50.858;4.472;2022-10-16T03:47:48;2.10;;;1.08;;
23714;SDS011;12036;50.858;4.472;2022-10-16T03:50:14;3.63;;;1.30;;
23714;SDS011;12036;50.858;4.472;2022-10-16T03:52:40;2.35;;;1.30;;
23714;SDS011;12036;50.858;4.472;2022-10-16T03:55:05;1.30;;;1.00;;
23714;SDS011;12036;50.858;4.472;2022-10-16T03:57:32;1.40;;;1.20;;
23714;SDS011;12036;50.858;4.472;2022-10-16T03:59:57;4.07;;;1.10;;
23714;SDS011;12036;50.858;4.472;2022-10-16T04:02:23;7.53;;;1.35;;
23714;SDS011;12036;50.858;4.472;2022-10-16T04:04:48;2.35;;;1.40;;
23714;SDS011;12036;50.858;4.472;2022-10-16T04:07:14;2.42;;;1.20;;
23714;SDS011;12036;50.858;4.472;2022-10-16T04:09:40;2.63;;;1.20;;
23714;SDS011;12036;50.858;4.472;2022-10-16T04:12:06;5.78;;;1.05;;
23714;SDS011;12036;50.858;4.472;2022-10-16T04:14:32;4.05;;;1.30;;
23714;SDS011;12036;50.858;4.472;2022-10-16T04:16:59;4.25;;;1.52;;
23714;SDS011;12036;50.858;4.472;2022-10-16T04:19:24;1.60;;;1.30;;
23714;SDS011;12036;50.858;4.472;2022-10-16T04:21:50;3.00;;;1.38;;
23714;SDS011;12036;50.858;4.472;2022-10-16T04:24:15;2.53;;;1.25;;
23714;SDS011;12036;50.858;4.472;2022-10-16T04:26:41;2.00;;;1.02;;
23714;SDS011;12036;50.858;4.472;2022-10-16T04:29:07;4.32;;;1.27;;
23714;SDS011;12036;50.858;4.472;2022-10-16T04:31:32;2.72;;;1.05;;
23714;SDS011;12036;50.858;4.472;2022-10-16T04:33:58;1.98;;;1.02;;
23714;SDS011;12036;50.858;4.472;2022-10-16T04:36:24;3.88;;;1.20;;
23714;SDS011;12036;50.858;4.472;2022-10-16T04:38:49;3.03;;;1.10;;
23714;SDS011;12036;50.858;4.472;2022-10-16T04:41:15;5.88;;;1.80;;
23714;SDS011;12036;50.858;4.472;2022-10-16T04:43:41;3.45;;;1.10;;
23714;SDS011;12036;50.858;4.472;2022-10-16T04:46:06;2.15;;;1.15;;
23714;SDS011;12036;50.858;4.472;2022-10-16T04:48:32;3.58;;;1.20;;
23714;SDS011;12036;50.858;4.472;2022-10-16T04:50:58;3.20;;;1.20;;
23714;SDS011;12036;50.858;4.472;2022-10-16T04:53:24;4.20;;;1.25;;
23714;SDS011;12036;50.858;4.472;2022-10-16T04:55:49;1.98;;;1.13;;
23714;SDS011;12036;50.858;4.472;2022-10-16T04:58:15;2.33;;;1.20;;
23714;SDS011;12036;50.858;4.472;2022-10-16T05:00:41;3.42;;;1.10;;
23714;SDS011;12036;50.858;4.472;2022-10-16T05:03:07;3.08;;;1.33;;
23714;SDS011;12036;50.858;4.472;2022-10-16T05:05:34;3.30;;;1.23;;
23714;SDS011;12036;50.858;4.472;2022-10-16T05:08:00;4.03;;;1.15;;
23714;SDS011;12036;50.858;4.472;2022-10-16T05:10:27;1.33;;;1.17;;
23714;SDS011;12036;50.858;4.472;2022-10-16T05:12:53;4.63;;;1.13;;
23714;SDS011;12036;50.858;4.472;2022-10-16T05:15:18;6.47;;;1.30;;
23714;SDS011;12036;50.858;4.472;2022-10-16T05:17:44;2.20;;;1.10;;
23714;SDS011;12036;50.858;4.472;2022-10-16T05:20:11;3.10;;;1.45;;
23714;SDS011;12036;50.858;4.472;2022-10-16T05:22:37;2.80;;;1.30;;
23714;SDS011;12036;50.858;4.472;2022-10-16T05:25:03;4.93;;;1.10;;
23714;SDS011;12036;50.858;4.472;2022-10-16T05:27:29;2.45;;;1.02;;
23714;SDS011;12036;50.858;4.472;2022-10-16T05:29:54;8.90;;;1.58;;
23714;SDS011;12036;50.858;4.472;2022-10-16T05:32:20;2.60;;;1.25;;
23714;SDS011;12036;50.858;4.472;2022-10-16T05:34:46;4.00;;;1.30;;
23714;SDS011;12036;50.858;4.472;2022-10-16T05:37:11;6.15;;;1.50;;
23714;SDS011;12036;50.858;4.472;2022-10-16T05:39:38;3.10;;;1.50;;
23714;SDS011;12036;50.858;4.472;2022-10-16T05:42:04;1.55;;;1.20;;
23714;SDS011;12036;50.858;4.472;2022-10-16T05:44:30;2.88;;;1.45;;
23714;SDS011;12036;50.858;4.472;2022-10-16T05:46:56;3.05;;;1.27;;
23714;SDS011;12036;50.858;4.472;2022-10-16T05:49:22;4.53;;;1.40;;
23714;SDS011;12036;50.858;4.472;2022-10-16T05:51:47;4.53;;;1.45;;
23714;SDS011;12036;50.858;4.472;2022-10-16T05:54:13;3.70;;;1.77;;
23714;SDS011;12036;50.858;4.472;2022-10-16T05:56:39;3.65;;;1.42;;
23714;SDS011;12036;50.858;4.472;2022-10-16T05:59:05;3.90;;;1.40;;
23714;SDS011;12036;50.858;4.472;2022-10-16T06:01:31;2.85;;;1.50;;
23714;SDS011;12036;50.858;4.472;2022-10-16T06:03:57;4.10;;;1.67;;
23714;SDS011;12036;50.858;4.472;2022-10-16T06:06:23;2.78;;;1.30;;
23714;SDS011;12036;50.858;4.472;2022-10-16T06:08:51;4.20;;;1.40;;
23714;SDS011;12036;50.858;4.472;2022-10-16T06:11:22;5.22;;;1.42;;
23714;SDS011;12036;50.858;4.472;2022-10-16T06:13:53;3.13;;;1.65;;
23714;SDS011;12036;50.858;4.472;2022-10-16T06:16:21;3.83;;;1.45;;
23714;SDS011;12036;50.858;4.472;2022-10-16T06:18:47;4.53;;;1.27;;
23714;SDS011;12036;50.858;4.472;2022-10-16T06:21:19;4.55;;;1.33;;
23714;SDS011;12036;50.858;4.472;2022-10-16T06:23:46;3.65;;;1.67;;
23714;SDS011;12036;50.858;4.472;2022-10-16T06:26:13;6.55;;;1.48;;
23714;SDS011;12036;50.858;4.472;2022-10-16T06:28:44;4.03;;;1.48;;
23714;SDS011;12036;50.858;4.472;2022-10-16T06:31:10;3.33;;;1.55;;
23714;SDS011;12036;50.858;4.472;2022-10-16T06:33:37;1.55;;;1.40;;
23714;SDS011;12036;50.858;4.472;2022-10-16T06:36:07;3.55;;;1.60;;
23714;SDS011;12036;50.858;4.472;2022-10-16T06:38:34;4.82;;;1.30;;
23714;SDS011;12036;50.858;4.472;2022-10-16T06:41:02;3.55;;;1.40;;
23714;SDS011;12036;50.858;4.472;2022-10-16T06:43:29;1.75;;;1.38;;
23714;SDS011;12036;50.858;4.472;2022-10-16T06:46:00;2.53;;;1.40;;
23714;SDS011;12036;50.858;4.472;2022-10-16T06:48:27;4.40;;;1.52;;
23714;SDS011;12036;50.858;4.472;2022-10-16T06:50:57;6.28;;;1.50;;
23714;SDS011;12036;50.858;4.472;2022-10-16T06:53:51;5.22;;;1.38;;
23714;SDS011;12036;50.858;4.472;2022-10-16T06:56:19;2.88;;;1.40;;
23714;SDS011;12036;50.858;4.472;2022-10-16T06:58:49;5.07;;;1.50;;
23714;SDS011;12036;50.858;4.472;2022-10-16T07:01:17;6.63;;;1.52;;
23714;SDS011;12036;50.858;4.472;2022-10-16T07:03:44;3.90;;;1.40;;
23714;SDS011;12036;50.858;4.472;2022-10-16T07:06:12;3.65;;;1.45;;
23714;SDS011;12036;50.858;4.472;2022-10-16T07:08:40;2.83;;;1.35;;
23714;SDS011;12036;50.858;4.472;2022-10-16T07:11:07;2.95;;;1.52;;
23714;SDS011;12036;50.858;4.472;2022-10-16T07:13:38;6.38;;;1.38;;
23714;SDS011;12036;50.858;4.472;2022-10-16T07:16:05;3.90;;;1.20;;
23714;SDS011;12036;50.858;4.472;2022-10-16T07:18:32;7.93;;;1.20;;
23714;SDS011;12036;50.858;4.472;2022-10-16T07:23:30;5.90;;;1.30;;
23714;SDS011;12036;50.858;4.472;2022-10-16T07:25:55;2.35;;;1.35;;
23714;SDS011;12036;50.858;4.472;2022-10-16T07:28:21;3.30;;;1.45;;
23714;SDS011;12036;50.858;4.472;2022-10-16T07:30:47;2.95;;;1.55;;
23714;SDS011;12036;50.858;4.472;2022-10-16T07:33:13;3.00;;;1.20;;
23714;SDS011;12036;50.858;4.472;2022-10-16T07:35:47;3.45;;;1.13;;
23714;SDS011;12036;50.858;4.472;2022-10-16T07:38:16;3.22;;;1.33;;
23714;SDS011;12036;50.858;4.472;2022-10-16T07:40:42;3.33;;;1.33;;
23714;SDS011;12036;50.858;4.472;2022-10-16T07:43:08;2.05;;;1.50;;
23714;SDS011;12036;50.858;4.472;2022-10-16T07:45:34;2.92;;;0.90;;
23714;SDS011;12036;50.858;4.472;2022-10-16T07:47:59;5.95;;;1.27;;
23714;SDS011;12036;50.858;4.472;2022-10-16T07:50:25;5.70;;;1.10;;
23714;SDS011;12036;50.858;4.472;2022-10-16T07:52:50;4.72;;;1.20;;
23714;SDS011;12036;50.858;4.472;2022-10-16T07:55:17;2.63;;;1.35;;
23714;SDS011;12036;50.858;4.472;2022-10-16T07:57:42;4.70;;;1.08;;
23714;SDS011;12036;50.858;4.472;2022-10-16T08:00:08;3.90;;;1.27;;
23714;SDS011;12036;50.858;4.472;2022-10-16T08:02:38;4.22;;;1.27;;
23714;SDS011;12036;50.858;4.472;2022-10-16T08:05:05;2.08;;;0.80;;
23714;SDS011;12036;50.858;4.472;2022-10-16T08:07:31;1.67;;;1.00;;
23714;SDS011;12036;50.858;4.472;2022-10-16T08:09:56;2.95;;;1.10;;
23714;SDS011;12036;50.858;4.472;2022-10-16T08:12:23;1.52;;;0.80;;
23714;SDS011;12036;50.858;4.472;2022-10-16T08:14:49;3.03;;;1.27;;
23714;SDS011;12036;50.858;4.472;2022-10-16T08:17:15;2.85;;;1.02;;
23714;SDS011;12036;50.858;4.472;2022-10-16T08:19:43;3.85;;;1.17;;
23714;SDS011;12036;50.858;4.472;2022-10-16T08:22:15;1.88;;;1.00;;
23714;SDS011;12036;50.858;4.472;2022-10-16T08:24:41;3.88;;;1.10;;
23714;SDS011;12036;50.858;4.472;2022-10-16T08:27:06;2.08;;;1.00;;
23714;SDS011;12036;50.858;4.472;2022-10-16T08:29:33;5.22;;;1.10;;
23714;SDS011;12036;50.858;4.472;2022-10-16T08:32:00;4.15;;;1.00;;
23714;SDS011;12036;50.858;4.472;2022-10-16T08:34:25;4.22;;;1.30;;
23714;SDS011;12036;50.858;4.472;2022-10-16T08:36:52;2.13;;;0.80;;
23714;SDS011;12036;50.858;4.472;2022-10-16T08:39:19;3.75;;;1.10;;
23714;SDS011;12036;50.858;4.472;2022-10-16T08:42:01;3.72;;;1.00;;
23714;SDS011;12036;50.858;4.472;2022-10-16T08:47:19;2.10;;;0.80;;
23714;SDS011;12036;50.858;4.472;2022-10-16T08:52:25;3.05;;;0.90;;
23714;SDS011;12036;50.858;4.472;2022-10-16T08:54:58;8.65;;;1.10;;
23714;SDS011;12036;50.858;4.472;2022-10-16T08:57:25;1.77;;;0.98;;
23714;SDS011;12036;50.858;4.472;2022-10-16T08:59:52;1.52;;;0.80;;
23714;SDS011;12036;50.858;4.472;2022-10-16T09:02:32;5.47;;;0.90;;
23714;SDS011;12036;50.858;4.472;2022-10-16T09:05:29;5.55;;;1.30;;
23714;SDS011;12036;50.858;4.472;2022-10-16T09:10:50;3.65;;;0.90;;
23714;SDS011;12036;50.858;4.472;2022-10-16T09:13:50;2.28;;;0.90;;
23714;SDS011;12036;50.858;4.472;2022-10-16T09:19:24;9.77;;;1.13;;
23714;SDS011;12036;50.858;4.472;2022-10-16T09:21:59;1.63;;;0.95;;
23714;SDS011;12036;50.858;4.472;2022-10-16T09:24:35;4.07;;;0.77;;
23714;SDS011;12036;50.858;4.472;2022-10-16T09:27:01;5.80;;;0.90;;
23714;SDS011;12036;50.858;4.472;2022-10-16T09:29:26;2.45;;;1.00;;
23714;SDS011;12036;50.858;4.472;2022-10-16T09:31:52;3.20;;;1.08;;
23714;SDS011;12036;50.858;4.472;2022-10-16T09:34:35;3.30;;;0.80;;
23714;SDS011;12036;50.858;4.472;2022-10-16T09:37:05;3.50;;;1.10;;
23714;SDS011;12036;50.858;4.472;2022-10-16T09:39:49;5.05;;;0.88;;
23714;SDS011;12036;50.858;4.472;2022-10-16T09:42:19;4.80;;;0.90;;
23714;SDS011;12036;50.858;4.472;2022-10-16T09:44:55;2.35;;;0.68;;
23714;SDS011;12036;50.858;4.472;2022-10-16T09:47:25;1.77;;;0.82;;
23714;SDS011;12036;50.858;4.472;2022-10-16T09:49:54;2.40;;;0.90;;
23714;SDS011;12036;50.858;4.472;2022-10-16T09:52:31;3.38;;;0.80;;
23714;SDS011;12036;50.858;4.472;2022-10-16T09:54:58;9.32;;;1.73;;
23714;SDS011;12036;50.858;4.472;2022-10-16T09:57:26;2.50;;;0.73;;
23714;SDS011;12036;50.858;4.472;2022-10-16T09:59:54;4.50;;;0.90;;
23714;SDS011;12036;50.858;4.472;2022-10-16T10:02:30;1.27;;;0.80;;
23714;SDS011;12036;50.858;4.472;2022-10-16T10:05:00;6.43;;;0.90;;
23714;SDS011;12036;50.858;4.472;2022-10-16T10:07:33;5.60;;;1.00;;
23714;SDS011;12036;50.858;4.472;2022-10-16T10:10:04;4.57;;;0.73;;
23714;SDS011;12036;50.858;4.472;2022-10-16T10:12:31;3.83;;;0.85;;
23714;SDS011;12036;50.858;4.472;2022-10-16T10:15:12;4.00;;;0.80;;
23714;SDS011;12036;50.858;4.472;2022-10-16T10:17:47;7.18;;;1.20;;
23714;SDS011;12036;50.858;4.472;2022-10-16T10:20:35;3.03;;;0.95;;
23714;SDS011;12036;50.858;4.472;2022-10-16T10:26:01;2.72;;;0.90;;
23714;SDS011;12036;50.858;4.472;2022-10-16T10:28:32;4.15;;;0.80;;
23714;SDS011;12036;50.858;4.472;2022-10-16T10:43:00;2.78;;;0.65;;
23714;SDS011;12036;50.858;4.472;2022-10-16T10:50:51;3.78;;;0.70;;
23714;SDS011;12036;50.858;4.472;2022-10-16T10:53:28;2.80;;;0.90;;
23714;SDS011;12036;50.858;4.472;2022-10-16T10:59:29;3.50;;;0.85;;
23714;SDS011;12036;50.858;4.472;2022-10-16T11:02:07;2.50;;;0.77;;
23714;SDS011;12036;50.858;4.472;2022-10-16T11:07:15;4.43;;;0.77;;
23714;SDS011;12036;50.858;4.472;2022-10-16T11:09:58;1.98;;;0.63;;
23714;SDS011;12036;50.858;4.472;2022-10-16T11:12:33;1.85;;;0.75;;
23714;SDS011;12036;50.858;4.472;2022-10-16T11:15:12;3.03;;;0.60;;
23714;SDS011;12036;50.858;4.472;2022-10-16T11:17:44;5.07;;;0.90;;
23714;SDS011;12036;50.858;4.472;2022-10-16T11:20:32;2.13;;;0.60;;
23714;SDS011;12036;50.858;4.472;2022-10-16T11:25:43;2.08;;;0.65;;
23714;SDS011;12036;50.858;4.472;2022-10-16T11:35:47;4.63;;;0.80;;
23714;SDS011;12036;50.858;4.472;2022-10-16T11:39:21;4.80;;;0.57;;
23714;SDS011;12036;50.858;4.472;2022-10-16T11:41:20;4.45;;;0.60;;
23714;SDS011;12036;50.858;4.472;2022-10-16T11:43:58;1.50;;;0.52;;
23714;SDS011;12036;50.858;4.472;2022-10-16T11:46:27;2.47;;;1.57;;
23714;SDS011;12036;50.858;4.472;2022-10-16T11:49:15;1.75;;;0.43;;
23714;SDS011;12036;50.858;4.472;2022-10-16T11:51:48;1.83;;;0.73;;
23714;SDS011;12036;50.858;4.472;2022-10-16T11:57:39;2.55;;;0.55;;
23714;SDS011;12036;50.858;4.472;2022-10-16T12:08:26;2.63;;;0.60;;
23714;SDS011;12036;50.858;4.472;2022-10-16T12:10:53;1.00;;;0.60;;
23714;SDS011;12036;50.858;4.472;2022-10-16T12:13:35;1.92;;;0.40;;
23714;SDS011;12036;50.858;4.472;2022-10-16T12:18:37;3.33;;;0.80;;
23714;SDS011;12036;50.858;4.472;2022-10-16T12:21:07;3.28;;;0.80;;
23714;SDS011;12036;50.858;4.472;2022-10-16T12:23:38;3.55;;;0.60;;
23714;SDS011;12036;50.858;4.472;2022-10-16T12:26:12;2.75;;;0.80;;
23714;SDS011;12036;50.858;4.472;2022-10-16T12:28:38;1.02;;;0.50;;
23714;SDS011;12036;50.858;4.472;2022-10-16T12:31:06;3.40;;;0.40;;
23714;SDS011;12036;50.858;4.472;2022-10-16T12:36:16;1.48;;;0.40;;
23714;SDS011;12036;50.858;4.472;2022-10-16T12:39:01;1.98;;;0.57;;
23714;SDS011;12036;50.858;4.472;2022-10-16T12:41:31;4.38;;;0.57;;
23714;SDS011;12036;50.858;4.472;2022-10-16T12:43:59;2.28;;;0.65;;
23714;SDS011;12036;50.858;4.472;2022-10-16T12:51:38;0.63;;;0.40;;
23714;SDS011;12036;50.858;4.472;2022-10-16T13:02:28;2.92;;;0.65;;
23714;SDS011;12036;50.858;4.472;2022-10-16T13:05:26;2.28;;;0.90;;
23714;SDS011;12036;50.858;4.472;2022-10-16T13:24:31;5.15;;;0.60;;
23714;SDS011;12036;50.858;4.472;2022-10-16T13:30:28;2.55;;;0.60;;
23714;SDS011;12036;50.858;4.472;2022-10-16T13:32:58;2.55;;;0.70;;
23714;SDS011;12036;50.858;4.472;2022-10-16T13:35:30;4.85;;;0.50;;
23714;SDS011;12036;50.858;4.472;2022-10-16T13:38:17;4.40;;;1.80;;
23714;SDS011;12036;50.858;4.472;2022-10-16T13:40:54;3.35;;;0.60;;
23714;SDS011;12036;50.858;4.472;2022-10-16T13:43:32;6.68;;;0.80;;
23714;SDS011;12036;50.858;4.472;2022-10-16T13:46:04;2.45;;;0.60;;
23714;SDS011;12036;50.858;4.472;2022-10-16T13:48:32;3.35;;;0.80;;
23714;SDS011;12036;50.858;4.472;2022-10-16T13:51:06;3.55;;;0.60;;
23714;SDS011;12036;50.858;4.472;2022-10-16T13:53:37;1.75;;;0.50;;
23714;SDS011;12036;50.858;4.472;2022-10-16T13:56:05;2.50;;;0.90;;
23714;SDS011;12036;50.858;4.472;2022-10-16T13:58:41;2.30;;;0.70;;
23714;SDS011;12036;50.858;4.472;2022-10-16T14:03:48;3.25;;;1.02;;
23714;SDS011;12036;50.858;4.472;2022-10-16T14:06:21;2.95;;;0.65;;
23714;SDS011;12036;50.858;4.472;2022-10-16T14:08:56;1.02;;;0.60;;
23714;SDS011;12036;50.858;4.472;2022-10-16T14:11:26;3.20;;;1.13;;
23714;SDS011;12036;50.858;4.472;2022-10-16T14:13:52;6.82;;;1.10;;
23714;SDS011;12036;50.858;4.472;2022-10-16T14:16:20;1.90;;;0.80;;
23714;SDS011;12036;50.858;4.472;2022-10-16T14:18:52;3.28;;;0.70;;
23714;SDS011;12036;50.858;4.472;2022-10-16T14:21:23;3.60;;;1.00;;
23714;SDS011;12036;50.858;4.472;2022-10-16T14:23:49;2.47;;;0.80;;
23714;SDS011;12036;50.858;4.472;2022-10-16T14:26:16;4.25;;;0.95;;
23714;SDS011;12036;50.858;4.472;2022-10-16T14:28:45;7.60;;;1.35;;
23714;SDS011;12036;50.858;4.472;2022-10-16T14:33:46;6.88;;;1.25;;
23714;SDS011;12036;50.858;4.472;2022-10-16T14:36:13;4.10;;;1.17;;
23714;SDS011;12036;50.858;4.472;2022-10-16T14:41:40;5.78;;;1.10;;
23714;SDS011;12036;50.858;4.472;2022-10-16T14:44:10;4.60;;;1.00;;
23714;SDS011;12036;50.858;4.472;2022-10-16T14:46:37;3.35;;;1.10;;
23714;SDS011;12036;50.858;4.472;2022-10-16T14:51:33;3.33;;;1.15;;
23714;SDS011;12036;50.858;4.472;2022-10-16T14:53:59;5.18;;;1.13;;
23714;SDS011;12036;50.858;4.472;2022-10-16T14:56:29;5.93;;;1.00;;
23714;SDS011;12036;50.858;4.472;2022-10-16T14:59:11;3.20;;;1.23;;
23714;SDS011;12036;50.858;4.472;2022-10-16T15:02:01;2.03;;;0.90;;
23714;SDS011;12036;50.858;4.472;2022-10-16T15:04:40;3.95;;;1.00;;
23714;SDS011;12036;50.858;4.472;2022-10-16T15:07:07;3.80;;;1.00;;
23714;SDS011;12036;50.858;4.472;2022-10-16T15:09:33;4.72;;;1.30;;
23714;SDS011;12036;50.858;4.472;2022-10-16T15:11:58;7.72;;;1.15;;
23714;SDS011;12036;50.858;4.472;2022-10-16T15:14:24;4.78;;;0.88;;
23714;SDS011;12036;50.858;4.472;2022-10-16T15:16:50;2.75;;;0.82;;
23714;SDS011;12036;50.858;4.472;2022-10-16T15:19:15;1.83;;;0.75;;
23714;SDS011;12036;50.858;4.472;2022-10-16T15:21:41;2.78;;;0.80;;
23714;SDS011;12036;50.858;4.472;2022-10-16T15:24:08;4.25;;;1.00;;
23714;SDS011;12036;50.858;4.472;2022-10-16T15:26:37;3.22;;;0.90;;
23714;SDS011;12036;50.858;4.472;2022-10-16T15:29:03;1.92;;;0.70;;
23714;SDS011;12036;50.858;4.472;2022-10-16T15:31:28;2.20;;;0.88;;
23714;SDS011;12036;50.858;4.472;2022-10-16T15:33:54;5.07;;;0.80;;
23714;SDS011;12036;50.858;4.472;2022-10-16T15:36:30;3.65;;;0.80;;
23714;SDS011;12036;50.858;4.472;2022-10-16T15:39:05;3.00;;;0.88;;
23714;SDS011;12036;50.858;4.472;2022-10-16T15:41:41;2.70;;;1.00;;
23714;SDS011;12036;50.858;4.472;2022-10-16T15:44:07;3.63;;;1.10;;
23714;SDS011;12036;50.858;4.472;2022-10-16T15:46:33;4.18;;;1.00;;
23714;SDS011;12036;50.858;4.472;2022-10-16T15:48:59;4.68;;;1.13;;
23714;SDS011;12036;50.858;4.472;2022-10-16T15:51:25;3.80;;;0.88;;
23714;SDS011;12036;50.858;4.472;2022-10-16T15:53:58;2.78;;;0.80;;
23714;SDS011;12036;50.858;4.472;2022-10-16T15:58:53;2.58;;;0.82;;
23714;SDS011;12036;50.858;4.472;2022-10-16T16:01:19;2.35;;;0.95;;
23714;SDS011;12036;50.858;4.472;2022-10-16T16:03:46;1.40;;;0.88;;
23714;SDS011;12036;50.858;4.472;2022-10-16T16:06:12;3.17;;;1.02;;
23714;SDS011;12036;50.858;4.472;2022-10-16T16:08:38;2.15;;;1.05;;
23714;SDS011;12036;50.858;4.472;2022-10-16T16:11:06;2.53;;;1.10;;
23714;SDS011;12036;50.858;4.472;2022-10-16T16:13:38;3.28;;;1.30;;
23714;SDS011;12036;50.858;4.472;2022-10-16T16:16:08;7.72;;;1.52;;
23714;SDS011;12036;50.858;4.472;2022-10-16T16:18:36;3.28;;;1.35;;
23714;SDS011;12036;50.858;4.472;2022-10-16T16:21:03;3.55;;;1.20;;
23714;SDS011;12036;50.858;4.472;2022-10-16T16:23:29;2.60;;;1.23;;
23714;SDS011;12036;50.858;4.472;2022-10-16T16:26:09;4.03;;;1.20;;
23714;SDS011;12036;50.858;4.472;2022-10-16T16:28:41;7.32;;;1.30;;
23714;SDS011;12036;50.858;4.472;2022-10-16T16:31:07;2.35;;;1.15;;
23714;SDS011;12036;50.858;4.472;2022-10-16T16:33:33;2.50;;;1.27;;
23714;SDS011;12036;50.858;4.472;2022-10-16T16:36:00;5.88;;;1.70;;
23714;SDS011;12036;50.858;4.472;2022-10-16T16:38:28;4.55;;;1.90;;
23714;SDS011;12036;50.858;4.472;2022-10-16T16:40:54;6.40;;;2.08;;
23714;SDS011;12036;50.858;4.472;2022-10-16T16:43:26;4.30;;;1.60;;
23714;SDS011;12036;50.858;4.472;2022-10-16T16:45:53;2.10;;;1.52;;
23714;SDS011;12036;50.858;4.472;2022-10-16T16:48:19;4.20;;;1.80;;
23714;SDS011;12036;50.858;4.472;2022-10-16T16:50:45;3.33;;;1.73;;
23714;SDS011;12036;50.858;4.472;2022-10-16T16:53:11;4.97;;;1.75;;
23714;SDS011;12036;50.858;4.472;2022-10-16T16:55:36;4.43;;;1.73;;
23714;SDS011;12036;50.858;4.472;2022-10-16T16:58:02;7.03;;;2.08;;
23714;SDS011;12036;50.858;4.472;2022-10-16T17:00:28;2.50;;;1.80;;
23714;SDS011;12036;50.858;4.472;2022-10-16T17:02:55;6.65;;;3.15;;
23714;SDS011;12036;50.858;4.472;2022-10-16T17:05:22;4.30;;;2.05;;
23714;SDS011;12036;50.858;4.472;2022-10-16T17:07:48;3.58;;;1.98;;
23714;SDS011;12036;50.858;4.472;2022-10-16T17:10:13;6.32;;;2.03;;
23714;SDS011;12036;50.858;4.472;2022-10-16T17:12:39;5.72;;;2.13;;
23714;SDS011;12036;50.858;4.472;2022-10-16T17:15:05;5.25;;;2.85;;
23714;SDS011;12036;50.858;4.472;2022-10-16T17:17:31;4.30;;;2.85;;